createdAt,value
2018-05-12T00:00:07.112Z,23.98
2018-05-12T00:00:38.317Z,24.75
2018-05-12T00:01:09.527Z,27.62
2018-05-12T00:01:40.732Z,24.67
2018-05-12T00:02:11.953Z,30.37
2018-05-12T00:02:43.210Z,26.58
2018-05-12T00:03:14.425Z,28.08
2018-05-12T00:03:46.351Z,27.92
2018-05-12T00:04:17.608Z,24.70
2018-05-12T00:04:48.820Z,24.27
2018-05-12T00:05:20.032Z,28.12
2018-05-12T00:05:51.342Z,26.65
2018-05-12T00:06:22.502Z,29.40
2018-05-12T00:06:53.712Z,36.72
2018-05-12T00:07:24.926Z,35.30
2018-05-12T00:07:56.147Z,32.13
2018-05-12T00:08:27.385Z,42.17
2018-05-12T00:08:58.625Z,37.58
2018-05-12T00:09:29.847Z,28.20
2018-05-12T00:10:01.061Z,33.47
2018-05-12T00:10:32.272Z,37.58
2018-05-12T00:11:03.481Z,36.95
2018-05-12T00:11:34.698Z,26.25
2018-05-12T00:12:05.922Z,26.83
2018-05-12T00:12:37.180Z,25.25
2018-05-12T00:13:08.371Z,23.58
2018-05-12T00:13:39.585Z,25.25
2018-05-12T00:14:10.792Z,22.30
2018-05-12T00:14:42.001Z,21.77
2018-05-12T00:15:13.222Z,23.23
2018-05-12T00:15:44.454Z,22.37
2018-05-12T00:16:15.684Z,21.70
2018-05-12T00:16:46.930Z,22.37
2018-05-12T00:17:18.136Z,25.80
2018-05-12T00:17:49.401Z,23.70
2018-05-12T00:18:20.633Z,23.58
2018-05-12T00:18:51.900Z,25.83
2018-05-12T00:19:23.114Z,25.95
2018-05-12T00:19:54.314Z,24.20
2018-05-12T00:20:25.506Z,25.27
2018-05-12T00:20:56.744Z,25.12
2018-05-12T00:21:28.021Z,25.77
2018-05-12T00:21:59.229Z,32.47
2018-05-12T00:22:30.438Z,26.87
2018-05-12T00:23:01.684Z,22.65
2018-05-12T00:23:32.897Z,23.98
2018-05-12T00:24:04.178Z,25.67
2018-05-12T00:24:35.393Z,27.40
2018-05-12T00:25:06.605Z,25.65
2018-05-12T00:25:37.874Z,26.37
2018-05-12T00:26:09.425Z,25.40
2018-05-12T00:26:40.642Z,24.05
2018-05-12T00:27:11.858Z,26.77
2018-05-12T00:27:43.066Z,25.92
2018-05-12T00:28:14.319Z,25.50
2018-05-12T00:28:45.511Z,26.00
2018-05-12T00:29:16.763Z,27.17
2018-05-12T00:29:47.978Z,27.98
2018-05-12T00:30:19.225Z,30.67
2018-05-12T00:30:50.429Z,26.20
2018-05-12T00:31:21.641Z,31.17
2018-05-12T00:31:52.870Z,27.33
2018-05-12T00:32:24.392Z,29.25
2018-05-12T00:32:56.386Z,28.48
2018-05-12T00:33:27.594Z,26.95
2018-05-12T00:33:58.857Z,27.65
2018-05-12T00:34:30.107Z,29.27
2018-05-12T00:35:01.329Z,28.10
2018-05-12T00:35:32.547Z,29.70
2018-05-12T00:36:03.757Z,29.45
2018-05-12T00:36:34.983Z,27.27
2018-05-12T00:37:06.174Z,26.87
2018-05-12T00:37:37.387Z,25.37
2018-05-12T00:38:08.601Z,26.55
2018-05-12T00:38:39.870Z,26.65
2018-05-12T00:39:11.068Z,27.20
2018-05-12T00:39:42.271Z,27.67
2018-05-12T00:40:13.522Z,27.85
2018-05-12T00:40:44.735Z,27.70
2018-05-12T00:41:15.947Z,29.60
2018-05-12T00:41:47.166Z,34.83
2018-05-12T00:42:18.406Z,54.10
2018-05-12T00:42:49.629Z,51.95
2018-05-12T00:43:20.837Z,38.55
2018-05-12T00:43:52.090Z,28.12
2018-05-12T00:44:23.310Z,28.87
2018-05-12T00:44:54.525Z,26.27
2018-05-12T00:45:25.755Z,31.65
2018-05-12T00:45:57.001Z,43.72
2018-05-12T00:46:28.226Z,52.25
2018-05-12T00:46:59.486Z,28.80
2018-05-12T00:47:30.695Z,41.17
2018-05-12T00:48:01.916Z,31.77
2018-05-12T00:48:33.129Z,36.10
2018-05-12T00:49:04.974Z,37.95
2018-05-12T00:49:36.201Z,46.88
2018-05-12T00:50:07.419Z,45.00
2018-05-12T00:50:38.641Z,38.70
2018-05-12T00:51:09.846Z,35.92
2018-05-12T00:51:41.091Z,34.33
2018-05-12T00:52:12.296Z,42.70
2018-05-12T00:52:43.570Z,50.47
2018-05-12T00:53:14.781Z,75.00
2018-05-12T00:53:46.004Z,61.33
2018-05-12T00:54:17.289Z,37.60
2018-05-12T00:54:48.501Z,29.67
2018-05-12T00:55:19.724Z,31.83
2018-05-12T00:55:50.935Z,28.12
2018-05-12T00:56:22.163Z,28.58
2018-05-12T00:56:53.393Z,27.30
2018-05-12T00:57:24.614Z,27.77
2018-05-12T00:57:55.829Z,30.83
2018-05-12T00:58:27.036Z,28.45
2018-05-12T00:58:58.257Z,27.52
2018-05-12T00:59:29.508Z,59.35
2018-05-12T01:00:00.733Z,85.85
2018-05-12T01:00:32.062Z,132.77
2018-05-12T01:01:03.280Z,219.25
2018-05-12T01:01:34.529Z,113.07
2018-05-12T01:02:05.741Z,56.90
2018-05-12T01:02:36.947Z,36.83
2018-05-12T01:03:08.178Z,48.10
2018-05-12T01:03:39.400Z,44.08
2018-05-12T01:04:10.625Z,42.20
2018-05-12T01:04:41.839Z,40.55
2018-05-12T01:05:13.093Z,35.10
2018-05-12T01:05:44.301Z,37.88
2018-05-12T01:06:15.529Z,33.95
2018-05-12T01:06:46.765Z,35.65
2018-05-12T01:07:17.976Z,34.33
2018-05-12T01:07:49.212Z,32.97
2018-05-12T01:08:20.446Z,37.40
2018-05-12T01:08:51.701Z,30.60
2018-05-12T01:09:22.939Z,35.25
2018-05-12T01:09:54.139Z,30.05
2018-05-12T01:10:25.387Z,30.12
2018-05-12T01:10:56.605Z,31.15
2018-05-12T01:11:27.865Z,29.42
2018-05-12T01:11:59.077Z,31.48
2018-05-12T01:12:30.287Z,30.27
2018-05-12T01:13:01.499Z,31.60
2018-05-12T01:13:32.814Z,34.05
2018-05-12T01:14:03.981Z,31.08
2018-05-12T01:14:35.272Z,30.90
2018-05-12T01:15:06.443Z,33.60
2018-05-12T01:15:37.653Z,35.55
2018-05-12T01:16:08.865Z,36.95
2018-05-12T01:16:40.138Z,36.78
2018-05-12T01:17:11.364Z,34.05
2018-05-12T01:17:42.577Z,35.63
2018-05-12T01:18:13.841Z,36.63
2018-05-12T01:18:45.049Z,37.08
2018-05-12T01:19:16.340Z,35.38
2018-05-12T01:19:47.564Z,42.40
2018-05-12T01:20:18.781Z,38.25
2018-05-12T01:20:50.004Z,38.42
2018-05-12T01:21:21.204Z,42.28
2018-05-12T01:21:52.416Z,40.30
2018-05-12T01:22:23.621Z,36.45
2018-05-12T01:22:54.830Z,40.05
2018-05-12T01:23:26.096Z,39.22
2018-05-12T01:23:57.305Z,39.35
2018-05-12T01:24:28.662Z,40.95
2018-05-12T01:24:59.879Z,53.72
2018-05-12T01:25:31.095Z,74.25
2018-05-12T01:26:02.296Z,92.50
2018-05-12T01:26:33.562Z,144.00
2018-05-12T01:27:04.780Z,125.00
2018-05-12T01:27:35.976Z,65.75
2018-05-12T01:28:07.176Z,70.30
2018-05-12T01:28:38.390Z,81.05
2018-05-12T01:29:09.621Z,48.67
2018-05-12T01:29:40.828Z,62.45
2018-05-12T01:30:12.037Z,65.28
2018-05-12T01:30:43.241Z,68.80
2018-05-12T01:31:14.454Z,103.30
2018-05-12T01:31:45.737Z,125.57
2018-05-12T01:32:16.935Z,119.72
2018-05-12T01:32:48.130Z,113.12
2018-05-12T01:33:19.343Z,99.93
2018-05-12T01:33:50.558Z,113.28
2018-05-12T01:34:21.760Z,80.57
2018-05-12T01:34:52.969Z,68.75
2018-05-12T01:35:24.172Z,84.82
2018-05-12T01:35:55.393Z,103.20
2018-05-12T01:36:26.596Z,82.00
2018-05-12T01:36:57.857Z,70.32
2018-05-12T01:37:29.077Z,56.25
2018-05-12T01:38:00.285Z,87.28
2018-05-12T01:38:31.535Z,83.12
2018-05-12T01:39:03.441Z,85.55
2018-05-12T01:39:34.710Z,87.82
2018-05-12T01:40:05.933Z,63.78
2018-05-12T01:40:37.142Z,51.92
2018-05-12T01:41:08.397Z,40.45
2018-05-12T01:41:39.622Z,42.40
2018-05-12T01:42:10.835Z,43.00
2018-05-12T01:42:42.572Z,38.47
2018-05-12T01:43:14.565Z,30.00
2018-05-12T01:43:45.786Z,27.98
2018-05-12T01:44:16.996Z,28.73
2018-05-12T01:44:48.205Z,24.12
2018-05-12T01:45:19.415Z,22.50
2018-05-12T01:45:50.673Z,25.33
2018-05-12T01:46:21.906Z,24.30
2018-05-12T01:46:53.103Z,23.38
2018-05-12T01:47:24.354Z,23.08
2018-05-12T01:47:55.574Z,21.27
2018-05-12T01:48:26.795Z,24.02
2018-05-12T01:48:58.042Z,26.95
2018-05-12T01:49:29.263Z,34.25
2018-05-12T01:50:00.477Z,51.05
2018-05-12T01:50:31.718Z,46.00
2018-05-12T01:51:02.976Z,46.75
2018-05-12T01:51:34.197Z,43.13
2018-05-12T01:52:05.410Z,59.85
2018-05-12T01:52:36.615Z,66.05
2018-05-12T01:53:07.856Z,52.13
2018-05-12T01:53:39.077Z,49.90
2018-05-12T01:54:11.103Z,61.65
2018-05-12T01:54:42.310Z,56.17
2018-05-12T01:55:13.521Z,34.75
2018-05-12T01:55:44.744Z,26.70
2018-05-12T01:56:16.066Z,28.38
2018-05-12T01:56:47.268Z,23.35
2018-05-12T01:57:18.477Z,22.05
2018-05-12T01:57:49.681Z,24.15
2018-05-12T01:58:20.903Z,21.77
2018-05-12T01:58:52.169Z,22.48
2018-05-12T01:59:23.377Z,23.70
2018-05-12T01:59:54.589Z,26.23
2018-05-12T02:00:25.798Z,25.58
2018-05-12T02:00:57.051Z,24.92
2018-05-12T02:01:28.310Z,22.87
2018-05-12T02:01:59.581Z,27.90
2018-05-12T02:02:30.796Z,33.50
2018-05-12T02:03:02.006Z,27.80
2018-05-12T02:03:33.248Z,45.12
2018-05-12T02:04:04.505Z,54.80
2018-05-12T02:04:35.720Z,49.45
2018-05-12T02:05:06.943Z,44.50
2018-05-12T02:05:38.150Z,45.65
2018-05-12T02:06:09.360Z,42.75
2018-05-12T02:06:40.581Z,42.80
2018-05-12T02:07:11.845Z,48.10
2018-05-12T02:07:43.053Z,41.55
2018-05-12T02:08:14.264Z,38.10
2018-05-12T02:08:45.478Z,40.88
2018-05-12T02:09:16.698Z,42.17
2018-05-12T02:09:47.891Z,52.53
2018-05-12T02:10:19.103Z,60.75
2018-05-12T02:10:50.328Z,51.80
2018-05-12T02:11:21.540Z,40.55
2018-05-12T02:11:52.778Z,31.87
2018-05-12T02:12:24.022Z,21.77
2018-05-12T02:12:55.270Z,22.13
2018-05-12T02:13:26.497Z,24.37
2018-05-12T02:13:58.327Z,23.70
2018-05-12T02:14:29.667Z,25.15
2018-05-12T02:15:00.888Z,20.88
2018-05-12T02:15:32.096Z,21.27
2018-05-12T02:16:03.311Z,20.88
2018-05-12T02:16:34.525Z,21.20
2018-05-12T02:17:05.788Z,21.37
2018-05-12T02:17:37.056Z,21.40
2018-05-12T02:18:08.261Z,20.70
2018-05-12T02:18:39.469Z,24.10
2018-05-12T02:19:10.678Z,21.10
2018-05-12T02:19:41.887Z,20.70
2018-05-12T02:20:13.114Z,20.50
2018-05-12T02:20:44.322Z,19.90
2018-05-12T02:21:15.582Z,21.75
2018-05-12T02:21:46.823Z,21.08
2018-05-12T02:22:18.035Z,21.55
2018-05-12T02:22:49.294Z,24.63
2018-05-12T02:23:20.508Z,21.52
2018-05-12T02:23:51.705Z,21.67
2018-05-12T02:24:22.918Z,21.60
2018-05-12T02:24:54.129Z,22.40
2018-05-12T02:25:25.341Z,22.42
2018-05-12T02:25:56.598Z,22.58
2018-05-12T02:26:27.805Z,25.10
2018-05-12T02:26:59.029Z,23.15
2018-05-12T02:27:30.246Z,23.58
2018-05-12T02:28:01.453Z,21.83
2018-05-12T02:28:32.684Z,22.70
2018-05-12T02:29:03.898Z,24.40
2018-05-12T02:29:35.136Z,23.42
2018-05-12T02:30:06.385Z,23.27
2018-05-12T02:30:37.611Z,22.62
2018-05-12T02:31:08.820Z,25.08
2018-05-12T02:31:40.096Z,26.35
2018-05-12T02:32:11.306Z,26.73
2018-05-12T02:32:42.525Z,25.98
2018-05-12T02:33:13.740Z,25.67
2018-05-12T02:33:44.966Z,26.12
2018-05-12T02:34:16.213Z,26.45
2018-05-12T02:34:47.425Z,25.17
2018-05-12T02:35:18.687Z,27.23
2018-05-12T02:35:49.913Z,25.75
2018-05-12T02:36:21.121Z,24.55
2018-05-12T02:36:52.355Z,25.77
2018-05-12T02:37:23.604Z,26.15
2018-05-12T02:37:54.833Z,23.38
2018-05-12T02:38:26.045Z,27.42
2018-05-12T02:38:57.263Z,23.70
2018-05-12T02:39:28.481Z,24.20
2018-05-12T02:39:59.741Z,24.70
2018-05-12T02:40:30.950Z,25.35
2018-05-12T02:41:02.161Z,25.42
2018-05-12T02:41:33.388Z,26.37
2018-05-12T02:42:04.602Z,26.37
2018-05-12T02:42:35.827Z,26.35
2018-05-12T02:43:07.054Z,26.67
2018-05-12T02:43:38.265Z,26.98
2018-05-12T02:44:09.497Z,26.40
2018-05-12T02:44:40.709Z,25.60
2018-05-12T02:45:11.962Z,26.35
2018-05-12T02:45:43.204Z,26.73
2018-05-12T02:46:14.458Z,24.98
2018-05-12T02:46:45.714Z,26.42
2018-05-12T02:47:16.921Z,25.23
2018-05-12T02:47:48.130Z,24.08
2018-05-12T02:48:19.337Z,25.40
2018-05-12T02:48:50.546Z,26.10
2018-05-12T02:49:21.793Z,24.90
2018-05-12T02:49:53.026Z,23.62
2018-05-12T02:50:24.274Z,29.92
2018-05-12T02:50:55.532Z,23.92
2018-05-12T02:51:26.744Z,25.60
2018-05-12T02:51:57.983Z,29.20
2018-05-12T02:52:29.188Z,29.17
2018-05-12T02:53:01.889Z,28.70
2018-05-12T02:53:33.107Z,28.12
2018-05-12T02:54:04.349Z,30.10
2018-05-12T02:54:35.604Z,31.65
2018-05-12T02:55:06.837Z,31.08
2018-05-12T02:55:38.047Z,31.33
2018-05-12T02:56:09.261Z,35.80
2018-05-12T02:56:40.546Z,35.13
2018-05-12T02:57:11.762Z,34.38
2018-05-12T02:57:42.954Z,33.28
2018-05-12T02:58:14.235Z,50.58
2018-05-12T02:58:45.448Z,60.75
2018-05-12T02:59:16.726Z,81.97
2018-05-12T02:59:47.929Z,62.92
2018-05-12T03:00:19.144Z,74.18
2018-05-12T03:00:50.384Z,89.62
2018-05-12T03:01:21.605Z,76.00
2018-05-12T03:01:52.827Z,60.92
2018-05-12T03:02:24.041Z,48.35
2018-05-12T03:02:55.250Z,48.90
2018-05-12T03:03:26.517Z,46.63
2018-05-12T03:03:57.778Z,49.90
2018-05-12T03:04:29.005Z,55.42
2018-05-12T03:05:00.220Z,47.65
2018-05-12T03:05:31.433Z,47.85
2018-05-12T03:06:02.678Z,63.83
2018-05-12T03:06:33.894Z,66.30
2018-05-12T03:07:05.115Z,58.65
2018-05-12T03:07:36.325Z,61.92
2018-05-12T03:08:07.553Z,50.08
2018-05-12T03:08:38.827Z,48.72
2018-05-12T03:09:10.033Z,47.00
2018-05-12T03:09:41.264Z,48.90
2018-05-12T03:10:12.533Z,54.22
2018-05-12T03:10:43.741Z,62.78
2018-05-12T03:11:14.949Z,69.60
2018-05-12T03:11:46.179Z,66.43
2018-05-12T03:12:17.384Z,60.95
2018-05-12T03:12:48.593Z,48.87
2018-05-12T03:13:19.814Z,41.00
2018-05-12T03:13:51.061Z,39.65
2018-05-12T03:14:22.285Z,39.33
2018-05-12T03:14:53.509Z,34.63
2018-05-12T03:15:24.741Z,36.22
2018-05-12T03:15:55.953Z,33.08
2018-05-12T03:16:27.173Z,31.73
2018-05-12T03:16:58.390Z,32.60
2018-05-12T03:17:29.605Z,32.33
2018-05-12T03:18:01.263Z,33.42
2018-05-12T03:18:32.505Z,31.67
2018-05-12T03:19:03.714Z,29.80
2018-05-12T03:19:34.942Z,30.10
2018-05-12T03:20:06.182Z,30.00
2018-05-12T03:20:37.385Z,28.23
2018-05-12T03:21:08.598Z,27.90
2018-05-12T03:21:39.809Z,27.27
2018-05-12T03:22:11.015Z,26.10
2018-05-12T03:22:42.948Z,26.80
2018-05-12T03:23:14.156Z,27.33
2018-05-12T03:23:45.372Z,29.55
2018-05-12T03:24:16.693Z,26.70
2018-05-12T03:24:47.883Z,25.02
2018-05-12T03:25:19.089Z,26.95
2018-05-12T03:25:50.311Z,26.58
2018-05-12T03:26:21.525Z,27.13
2018-05-12T03:26:52.774Z,27.20
2018-05-12T03:27:23.981Z,29.55
2018-05-12T03:27:55.188Z,27.62
2018-05-12T03:28:26.436Z,26.48
2018-05-12T03:28:57.652Z,27.58
2018-05-12T03:29:28.953Z,27.50
2018-05-12T03:30:00.208Z,26.95
2018-05-12T03:30:31.446Z,25.50
2018-05-12T03:31:02.729Z,28.85
2018-05-12T03:31:33.953Z,26.10
2018-05-12T03:32:05.164Z,25.27
2018-05-12T03:32:36.379Z,25.65
2018-05-12T03:33:07.589Z,24.20
2018-05-12T03:33:38.805Z,21.70
2018-05-12T03:34:10.018Z,25.35
2018-05-12T03:34:41.220Z,25.83
2018-05-12T03:35:12.464Z,21.67
2018-05-12T03:35:43.677Z,23.15
2018-05-12T03:36:14.911Z,21.85
2018-05-12T03:36:46.134Z,20.52
2018-05-12T03:37:17.345Z,21.33
2018-05-12T03:37:48.567Z,24.12
2018-05-12T03:38:19.781Z,21.42
2018-05-12T03:38:50.984Z,20.73
2018-05-12T03:39:22.203Z,20.70
2018-05-12T03:39:53.470Z,20.05
2018-05-12T03:40:24.715Z,20.05
2018-05-12T03:40:55.943Z,19.55
2018-05-12T03:41:27.161Z,21.30
2018-05-12T03:41:58.420Z,22.98
2018-05-12T03:42:29.666Z,20.00
2018-05-12T03:43:00.896Z,22.00
2018-05-12T03:43:32.114Z,21.45
2018-05-12T03:44:03.333Z,20.08
2018-05-12T03:44:34.569Z,21.30
2018-05-12T03:45:05.785Z,19.25
2018-05-12T03:45:36.996Z,20.95
2018-05-12T03:46:08.215Z,20.60
2018-05-12T03:46:39.434Z,26.95
2018-05-12T03:47:10.712Z,21.58
2018-05-12T03:47:41.925Z,24.40
2018-05-12T03:48:13.137Z,20.88
2018-05-12T03:48:44.341Z,20.25
2018-05-12T03:49:15.549Z,19.65
2018-05-12T03:49:46.802Z,19.45
2018-05-12T03:50:18.020Z,19.05
2018-05-12T03:50:49.265Z,18.45
2018-05-12T03:51:20.479Z,19.42
2018-05-12T03:51:51.697Z,19.15
2018-05-12T03:52:22.957Z,23.25
2018-05-12T03:52:54.175Z,18.00
2018-05-12T03:53:25.390Z,17.35
2018-05-12T03:53:56.593Z,17.05
2018-05-12T03:54:27.815Z,18.90
2018-05-12T03:54:59.064Z,18.65
2018-05-12T03:55:30.317Z,21.42
2018-05-12T03:56:01.527Z,21.73
2018-05-12T03:56:32.750Z,21.02
2018-05-12T03:57:03.962Z,22.85
2018-05-12T03:57:35.179Z,24.83
2018-05-12T03:58:06.396Z,23.83
2018-05-12T03:58:37.617Z,22.30
2018-05-12T03:59:08.834Z,21.00
2018-05-12T03:59:40.098Z,20.50
2018-05-12T04:00:11.300Z,22.35
2018-05-12T04:00:42.518Z,19.23
2018-05-12T04:01:13.842Z,18.65
2018-05-12T04:01:45.074Z,19.12
2018-05-12T04:02:16.280Z,19.85
2018-05-12T04:02:47.492Z,19.85
2018-05-12T04:03:18.713Z,17.33
2018-05-12T04:03:49.922Z,20.65
2018-05-12T04:04:21.126Z,19.27
2018-05-12T04:04:52.353Z,13.80
2018-05-12T04:05:23.637Z,13.68
2018-05-12T04:05:54.853Z,14.73
2018-05-12T04:06:26.113Z,14.18
2018-05-12T04:06:57.321Z,15.25
2018-05-12T04:07:28.562Z,17.23
2018-05-12T04:07:59.792Z,15.35
2018-05-12T04:08:31.084Z,15.55
2018-05-12T04:09:02.248Z,15.90
2018-05-12T04:09:33.457Z,16.05
2018-05-12T04:10:04.718Z,17.00
2018-05-12T04:10:35.987Z,16.20
2018-05-12T04:11:07.223Z,18.30
2018-05-12T04:11:38.473Z,25.02
2018-05-12T04:12:09.701Z,24.67
2018-05-12T04:12:40.952Z,17.98
2018-05-12T04:13:12.201Z,18.33
2018-05-12T04:13:43.777Z,17.65
2018-05-12T04:14:14.993Z,18.27
2018-05-12T04:14:46.214Z,14.80
2018-05-12T04:15:17.532Z,14.50
2018-05-12T04:15:48.737Z,16.37
2018-05-12T04:16:19.940Z,16.60
2018-05-12T04:16:51.181Z,16.25
2018-05-12T04:17:22.406Z,17.65
2018-05-12T04:17:53.609Z,17.15
2018-05-12T04:18:24.828Z,17.15
2018-05-12T04:18:56.043Z,17.75
2018-05-12T04:19:27.257Z,17.80
2018-05-12T04:19:58.471Z,16.87
2018-05-12T04:20:29.718Z,17.37
2018-05-12T04:21:01.016Z,16.80
2018-05-12T04:21:32.238Z,16.55
2018-05-12T04:22:03.470Z,16.87
2018-05-12T04:22:34.738Z,16.90
2018-05-12T04:23:05.957Z,16.80
2018-05-12T04:23:37.165Z,16.40
2018-05-12T04:24:08.408Z,17.20
2018-05-12T04:24:39.627Z,18.08
2018-05-12T04:25:10.840Z,17.48
2018-05-12T04:25:42.044Z,16.70
2018-05-12T04:26:13.328Z,17.60
2018-05-12T04:26:44.545Z,17.12
2018-05-12T04:27:15.755Z,17.48
2018-05-12T04:27:47.010Z,18.15
2018-05-12T04:28:18.238Z,19.27
2018-05-12T04:28:49.460Z,17.73
2018-05-12T04:29:20.699Z,18.12
2018-05-12T04:29:51.909Z,17.23
2018-05-12T04:30:23.146Z,18.40
2018-05-12T04:30:54.372Z,16.90
2018-05-12T04:31:25.581Z,17.35
2018-05-12T04:31:56.816Z,15.77
2018-05-12T04:32:28.071Z,17.02
2018-05-12T04:32:59.307Z,16.55
2018-05-12T04:33:30.518Z,16.33
2018-05-12T04:34:01.729Z,16.80
2018-05-12T04:34:33.907Z,16.30
2018-05-12T04:35:05.239Z,16.23
2018-05-12T04:35:36.448Z,15.38
2018-05-12T04:36:07.670Z,16.50
2018-05-12T04:36:38.895Z,15.85
2018-05-12T04:37:10.113Z,15.75
2018-05-12T04:37:41.401Z,15.38
2018-05-12T04:38:12.604Z,18.25
2018-05-12T04:38:43.835Z,16.08
2018-05-12T04:39:15.043Z,15.95
2018-05-12T04:39:46.250Z,14.75
2018-05-12T04:40:17.526Z,15.68
2018-05-12T04:40:48.750Z,15.43
2018-05-12T04:41:19.969Z,15.50
2018-05-12T04:41:51.186Z,16.37
2018-05-12T04:42:22.418Z,16.12
2018-05-12T04:42:53.750Z,14.30
2018-05-12T04:43:25.039Z,15.93
2018-05-12T04:43:56.293Z,15.25
2018-05-12T04:44:27.505Z,18.77
2018-05-12T04:44:58.721Z,16.33
2018-05-12T04:45:29.951Z,15.18
2018-05-12T04:46:01.165Z,13.50
2018-05-12T04:46:32.377Z,13.20
2018-05-12T04:47:03.584Z,16.77
2018-05-12T04:47:34.789Z,15.30
2018-05-12T04:48:06.052Z,14.68
2018-05-12T04:48:37.261Z,15.18
2018-05-12T04:49:08.477Z,17.30
2018-05-12T04:49:39.693Z,15.15
2018-05-12T04:50:10.906Z,14.87
2018-05-12T04:50:42.178Z,14.00
2018-05-12T04:51:13.393Z,14.77
2018-05-12T04:51:44.592Z,14.23
2018-05-12T04:52:15.806Z,14.25
2018-05-12T04:52:47.041Z,13.62
2018-05-12T04:53:18.297Z,16.00
2018-05-12T04:53:49.501Z,15.32
2018-05-12T04:54:20.804Z,13.90
2018-05-12T04:54:51.965Z,14.45
2018-05-12T04:55:23.245Z,14.00
2018-05-12T04:55:54.457Z,14.20
2018-05-12T04:56:25.670Z,14.30
2018-05-12T04:56:56.897Z,12.75
2018-05-12T04:57:28.172Z,16.90
2018-05-12T04:57:59.401Z,13.45
2018-05-12T04:58:30.618Z,14.15
2018-05-12T04:59:01.829Z,14.13
2018-05-12T04:59:33.085Z,13.45
2018-05-12T05:00:04.298Z,13.07
2018-05-12T05:00:35.528Z,13.70
2018-05-12T05:01:06.754Z,14.77
2018-05-12T05:01:37.966Z,12.37
2018-05-12T05:02:09.191Z,13.48
2018-05-12T05:02:40.401Z,12.23
2018-05-12T05:03:11.629Z,12.18
2018-05-12T05:03:42.841Z,13.15
2018-05-12T05:04:14.049Z,12.15
2018-05-12T05:04:45.282Z,13.38
2018-05-12T05:05:16.484Z,13.52
2018-05-12T05:05:47.692Z,12.60
2018-05-12T05:06:18.902Z,12.07
2018-05-12T05:06:50.155Z,15.45
2018-05-12T05:07:21.368Z,13.13
2018-05-12T05:07:52.583Z,12.95
2018-05-12T05:08:23.793Z,12.55
2018-05-12T05:08:55.005Z,12.32
2018-05-12T05:09:26.240Z,15.90
2018-05-12T05:09:57.453Z,12.73
2018-05-12T05:10:28.675Z,12.05
2018-05-12T05:10:59.899Z,11.30
2018-05-12T05:11:31.140Z,12.60
2018-05-12T05:12:02.400Z,10.25
2018-05-12T05:12:33.661Z,9.95
2018-05-12T05:13:04.894Z,9.50
2018-05-12T05:13:36.148Z,9.95
2018-05-12T05:14:07.373Z,10.88
2018-05-12T05:14:38.616Z,10.45
2018-05-12T05:15:09.835Z,10.57
2018-05-12T05:15:41.052Z,12.85
2018-05-12T05:16:12.315Z,12.10
2018-05-12T05:16:43.510Z,9.95
2018-05-12T05:17:14.772Z,9.35
2018-05-12T05:17:45.992Z,11.82
2018-05-12T05:18:17.282Z,10.95
2018-05-12T05:18:48.565Z,10.18
2018-05-12T05:19:19.785Z,9.80
2018-05-12T05:19:51.053Z,9.50
2018-05-12T05:20:22.268Z,9.82
2018-05-12T05:20:53.621Z,10.15
2018-05-12T05:21:24.837Z,9.70
2018-05-12T05:21:56.057Z,10.93
2018-05-12T05:22:27.312Z,10.55
2018-05-12T05:22:58.534Z,11.98
2018-05-12T05:23:29.826Z,11.45
2018-05-12T05:24:01.028Z,13.90
2018-05-12T05:24:32.283Z,10.93
2018-05-12T05:25:03.506Z,11.25
2018-05-12T05:25:34.713Z,11.07
2018-05-12T05:26:05.921Z,10.82
2018-05-12T05:26:37.115Z,10.50
2018-05-12T05:27:08.327Z,11.05
2018-05-12T05:27:39.558Z,19.30
2018-05-12T05:28:10.796Z,11.20
2018-05-12T05:28:42.009Z,9.38
2018-05-12T05:29:13.221Z,9.63
2018-05-12T05:29:44.437Z,9.65
2018-05-12T05:30:15.642Z,10.43
2018-05-12T05:30:46.895Z,12.63
2018-05-12T05:31:18.117Z,11.55
2018-05-12T05:31:49.321Z,9.63
2018-05-12T05:32:20.541Z,12.07
2018-05-12T05:32:51.758Z,9.25
2018-05-12T05:33:22.960Z,11.35
2018-05-12T05:33:54.206Z,9.32
2018-05-12T05:34:25.429Z,10.27
2018-05-12T05:34:56.645Z,9.20
2018-05-12T05:35:27.849Z,12.97
2018-05-12T05:35:59.090Z,11.25
2018-05-12T05:36:30.298Z,9.33
2018-05-12T05:37:01.510Z,11.93
2018-05-12T05:37:32.712Z,12.07
2018-05-12T05:38:04.520Z,12.00
2018-05-12T05:38:35.766Z,9.73
2018-05-12T05:39:06.984Z,9.70
2018-05-12T05:39:38.847Z,10.50
2018-05-12T05:40:10.086Z,9.83
2018-05-12T05:40:41.339Z,10.00
2018-05-12T05:41:12.644Z,11.03
2018-05-12T05:41:43.871Z,9.80
2018-05-12T05:42:15.103Z,9.87
2018-05-12T05:42:46.368Z,13.37
2018-05-12T05:43:17.677Z,14.97
2018-05-12T05:43:48.899Z,9.43
2018-05-12T05:44:20.106Z,10.47
2018-05-12T05:44:51.310Z,9.90
2018-05-12T05:45:22.511Z,14.67
2018-05-12T05:45:53.753Z,17.83
2018-05-12T05:46:24.967Z,13.70
2018-05-12T05:46:56.174Z,13.53
2018-05-12T05:47:27.385Z,10.57
2018-05-12T05:47:58.638Z,12.20
2018-05-12T05:48:29.887Z,12.07
2018-05-12T05:49:02.349Z,11.57
2018-05-12T05:49:33.621Z,10.75
2018-05-12T05:50:04.838Z,9.70
2018-05-12T05:50:36.065Z,12.00
2018-05-12T05:51:07.285Z,12.82
2018-05-12T05:51:38.507Z,9.75
2018-05-12T05:52:09.716Z,13.60
2018-05-12T05:52:40.929Z,10.15
2018-05-12T05:53:12.157Z,15.77
2018-05-12T05:53:43.412Z,11.35
2018-05-12T05:54:14.633Z,13.45
2018-05-12T05:54:45.845Z,10.95
2018-05-12T05:55:17.062Z,11.20
2018-05-12T05:55:48.294Z,12.27
2018-05-12T05:56:19.523Z,11.63
2018-05-12T05:56:50.754Z,10.90
2018-05-12T05:57:21.971Z,10.57
2018-05-12T05:57:53.169Z,11.02
2018-05-12T05:58:24.414Z,10.75
2018-05-12T05:58:55.624Z,10.90
2018-05-12T05:59:26.839Z,14.13
2018-05-12T05:59:58.082Z,12.27
2018-05-12T06:00:29.321Z,10.65
2018-05-12T06:01:00.551Z,10.68
2018-05-12T06:01:31.776Z,12.20
2018-05-12T06:02:02.993Z,12.45
2018-05-12T06:02:34.201Z,10.95
2018-05-12T06:03:05.426Z,11.15
2018-05-12T06:03:36.679Z,10.93
2018-05-12T06:04:07.931Z,11.68
2018-05-12T06:04:39.150Z,10.65
2018-05-12T06:05:10.350Z,11.15
2018-05-12T06:05:41.588Z,12.30
2018-05-12T06:06:12.801Z,12.40
2018-05-12T06:06:44.070Z,10.82
2018-05-12T06:07:15.270Z,12.45
2018-05-12T06:07:46.542Z,12.70
2018-05-12T06:08:17.755Z,13.77
2018-05-12T06:08:49.024Z,12.52
2018-05-12T06:09:20.225Z,11.52
2018-05-12T06:09:51.444Z,13.48
2018-05-12T06:10:22.667Z,15.13
2018-05-12T06:10:53.949Z,12.77
2018-05-12T06:11:25.168Z,11.95
2018-05-12T06:11:56.381Z,13.82
2018-05-12T06:12:27.593Z,12.60
2018-05-12T06:12:58.803Z,13.93
2018-05-12T06:13:30.029Z,12.93
2018-05-12T06:14:01.242Z,12.95
2018-05-12T06:14:32.463Z,17.12
2018-05-12T06:15:03.689Z,14.45
2018-05-12T06:15:34.926Z,13.68
2018-05-12T06:16:06.358Z,13.15
2018-05-12T06:16:37.636Z,18.40
2018-05-12T06:17:08.881Z,13.88
2018-05-12T06:17:40.237Z,14.98
2018-05-12T06:18:11.560Z,15.57
2018-05-12T06:18:42.749Z,12.10
2018-05-12T06:19:14.820Z,12.95
2018-05-12T06:19:46.072Z,14.52
2018-05-12T06:20:17.302Z,12.15
2018-05-12T06:20:49.415Z,11.85
2018-05-12T06:21:20.663Z,14.20
2018-05-12T06:21:51.878Z,12.40
2018-05-12T06:22:23.109Z,13.25
2018-05-12T06:22:54.358Z,13.98
2018-05-12T06:23:25.576Z,16.17
2018-05-12T06:23:56.786Z,11.90
2018-05-12T06:24:28.009Z,12.65
2018-05-12T06:24:59.230Z,12.63
2018-05-12T06:25:30.558Z,14.13
2018-05-12T06:26:01.819Z,12.95
2018-05-12T06:26:33.063Z,15.90
2018-05-12T06:27:04.308Z,12.90
2018-05-12T06:27:35.533Z,14.23
2018-05-12T06:28:06.762Z,13.85
2018-05-12T06:28:37.981Z,13.50
2018-05-12T06:29:09.205Z,13.57
2018-05-12T06:29:40.444Z,14.02
2018-05-12T06:30:11.669Z,11.77
2018-05-12T06:30:42.911Z,13.60
2018-05-12T06:31:14.191Z,12.50
2018-05-12T06:31:45.454Z,12.10
2018-05-12T06:32:16.682Z,12.77
2018-05-12T06:32:47.893Z,15.07
2018-05-12T06:33:19.193Z,12.82
2018-05-12T06:33:50.407Z,14.40
2018-05-12T06:34:21.660Z,13.10
2018-05-12T06:34:52.869Z,13.77
2018-05-12T06:35:24.101Z,12.00
2018-05-12T06:35:55.417Z,13.70
2018-05-12T06:36:26.637Z,12.15
2018-05-12T06:36:57.860Z,13.30
2018-05-12T06:37:29.076Z,12.88
2018-05-12T06:38:00.289Z,16.67
2018-05-12T06:38:31.545Z,13.62
2018-05-12T06:39:02.816Z,15.43
2018-05-12T06:39:34.065Z,13.62
2018-05-12T06:40:05.539Z,13.50
2018-05-12T06:40:36.757Z,17.12
2018-05-12T06:41:07.981Z,15.10
2018-05-12T06:41:39.257Z,12.68
2018-05-12T06:42:11.353Z,12.80
2018-05-12T06:42:42.679Z,14.52